createdAt,value
2024-02-17T00:00:54.382Z,19.95
2024-02-17T00:01:54.273Z,19.95
2024-02-17T00:02:54.254Z,19.95
2024-02-17T00:03:54.363Z,19.94
2024-02-17T00:04:54.365Z,19.98
2024-02-17T00:05:54.293Z,20.00
2024-02-17T00:06:54.378Z,20.00
2024-02-17T00:07:54.309Z,19.97
2024-02-17T00:08:54.316Z,19.97
2024-02-17T00:09:54.388Z,19.98
2024-02-17T00:10:54.461Z,19.94
2024-02-17T00:11:54.402Z,19.95
2024-02-17T00:12:54.453Z,19.97
2024-02-17T00:13:54.427Z,19.94
2024-02-17T00:14:54.435Z,19.94
2024-02-17T00:15:54.489Z,19.95
2024-02-17T00:16:54.452Z,19.94
2024-02-17T00:17:54.505Z,19.90
2024-02-17T00:18:54.602Z,19.94
2024-02-17T00:19:54.599Z,19.89
2024-02-17T00:20:54.462Z,19.89
2024-02-17T00:21:54.470Z,19.90
2024-02-17T00:22:54.482Z,19.95
2024-02-17T00:23:54.482Z,19.95
2024-02-17T00:24:54.540Z,19.95
2024-02-17T00:25:54.529Z,19.94
2024-02-17T00:26:54.519Z,19.95
2024-02-17T00:27:54.524Z,19.97
2024-02-17T00:28:54.531Z,19.98
2024-02-17T00:29:54.571Z,19.94
2024-02-17T00:30:54.552Z,19.90
2024-02-17T00:31:54.561Z,19.92
2024-02-17T00:32:54.641Z,19.95
2024-02-17T00:33:54.623Z,19.94
2024-02-17T00:34:54.655Z,19.95
2024-02-17T00:35:54.625Z,19.92
2024-02-17T00:36:54.622Z,19.94
2024-02-17T00:37:54.634Z,19.97
2024-02-17T00:38:54.603Z,19.97
2024-02-17T00:39:54.607Z,19.97
2024-02-17T00:40:54.623Z,19.95
2024-02-17T00:41:54.638Z,19.94
2024-02-17T00:42:54.636Z,19.95
2024-02-17T00:43:54.639Z,19.94
2024-02-17T00:44:54.653Z,19.89
2024-02-17T00:45:54.670Z,19.87
2024-02-17T00:46:54.666Z,19.89
2024-02-17T00:47:54.769Z,19.92
2024-02-17T00:48:54.932Z,19.92
2024-02-17T00:49:54.798Z,19.92
2024-02-17T00:50:58.220Z,19.94
2024-02-17T00:51:54.824Z,19.95
2024-02-17T00:52:54.837Z,19.97
2024-02-17T00:53:54.785Z,19.92
2024-02-17T00:54:54.824Z,19.94
2024-02-17T00:55:54.824Z,19.87
2024-02-17T00:56:54.830Z,19.90
2024-02-17T00:57:54.853Z,19.90
2024-02-17T00:58:54.847Z,19.92
2024-02-17T00:59:54.858Z,19.90
2024-02-17T01:00:55.003Z,19.90
2024-02-17T01:01:54.944Z,19.89
2024-02-17T01:02:54.905Z,19.86
2024-02-17T01:03:55.196Z,19.90
2024-02-17T01:04:55.011Z,19.90
2024-02-17T01:05:54.955Z,19.89
2024-02-17T01:06:54.963Z,19.87
2024-02-17T01:07:54.964Z,19.87
2024-02-17T01:08:54.943Z,19.94
2024-02-17T01:09:54.975Z,19.90
2024-02-17T01:10:54.989Z,19.89
2024-02-17T01:11:54.974Z,19.86
2024-02-17T01:12:55.000Z,19.86
2024-02-17T01:13:54.962Z,19.92
2024-02-17T01:14:54.956Z,19.94
2024-02-17T01:15:54.962Z,19.90
2024-02-17T01:17:55.069Z,19.92
2024-02-17T01:19:55.228Z,19.89
2024-02-17T01:20:55.050Z,19.92
2024-02-17T01:21:55.100Z,19.89
2024-02-17T01:22:55.093Z,19.90
2024-02-17T01:23:55.178Z,19.87
2024-02-17T01:24:55.157Z,19.90
2024-02-17T01:25:55.129Z,19.85
2024-02-17T01:26:55.137Z,19.87
2024-02-17T01:27:55.166Z,19.87
2024-02-17T01:28:55.162Z,19.89
2024-02-17T01:29:55.190Z,19.87
2024-02-17T01:30:55.297Z,19.85
2024-02-17T01:31:55.231Z,19.85
2024-02-17T01:32:55.338Z,19.89
2024-02-17T01:33:55.348Z,19.90
2024-02-17T01:34:55.284Z,19.87
2024-02-17T01:36:55.303Z,19.85
2024-02-17T01:37:55.296Z,19.85
2024-02-17T01:38:55.305Z,19.86
2024-02-17T01:39:55.334Z,19.86
2024-02-17T01:40:55.325Z,19.85
2024-02-17T01:41:55.342Z,19.89
2024-02-17T01:42:55.346Z,19.90
2024-02-17T01:43:55.390Z,19.92
2024-02-17T01:44:55.373Z,19.87
2024-02-17T01:45:55.437Z,19.85
2024-02-17T01:46:55.399Z,19.83
2024-02-17T01:47:55.431Z,19.83
2024-02-17T01:48:55.598Z,19.85
2024-02-17T01:49:55.455Z,19.85
2024-02-17T01:50:55.405Z,19.86
2024-02-17T01:51:55.423Z,19.89
2024-02-17T01:52:55.435Z,19.85
2024-02-17T01:53:55.436Z,19.82
2024-02-17T01:54:55.480Z,19.83
2024-02-17T01:55:55.483Z,19.80
2024-02-17T01:56:55.458Z,19.82
2024-02-17T01:57:55.572Z,19.82
2024-02-17T01:58:55.563Z,19.79
2024-02-17T01:59:55.466Z,19.83
2024-02-17T02:00:55.711Z,19.85
2024-02-17T02:01:55.462Z,19.86
2024-02-17T02:02:55.490Z,19.83
2024-02-17T02:03:55.523Z,19.82
2024-02-17T02:04:55.540Z,19.83
2024-02-17T02:05:55.563Z,19.85
2024-02-17T02:06:56.165Z,19.85
2024-02-17T02:07:55.501Z,19.82
2024-02-17T02:08:55.506Z,19.83
2024-02-17T02:09:55.518Z,19.82
2024-02-17T02:10:55.580Z,19.85
2024-02-17T02:11:55.556Z,19.85
2024-02-17T02:12:55.657Z,19.83
2024-02-17T02:13:55.513Z,19.82
2024-02-17T02:14:55.537Z,19.79
2024-02-17T02:15:55.600Z,19.83
2024-02-17T02:16:55.575Z,19.82
2024-02-17T02:17:55.620Z,19.87
2024-02-17T02:18:55.685Z,19.86
2024-02-17T02:19:55.634Z,19.85
2024-02-17T02:20:55.678Z,19.86
2024-02-17T02:21:55.616Z,19.86
2024-02-17T02:22:55.663Z,19.87
2024-02-17T02:23:55.659Z,19.86
2024-02-17T02:24:55.694Z,19.86
2024-02-17T02:25:55.846Z,19.85
2024-02-17T02:26:55.700Z,19.86
2024-02-17T02:27:55.841Z,19.82
2024-02-17T02:28:55.677Z,19.82
2024-02-17T02:29:55.678Z,19.82
2024-02-17T02:30:55.712Z,19.83
2024-02-17T02:31:55.685Z,19.85
2024-02-17T02:32:55.795Z,19.82
2024-02-17T02:33:55.852Z,19.83
2024-02-17T02:34:56.107Z,19.83
2024-02-17T02:35:55.737Z,19.80
2024-02-17T02:36:55.757Z,19.79
2024-02-17T02:37:55.740Z,19.79
2024-02-17T02:38:55.751Z,19.78
2024-02-17T02:39:55.753Z,19.80
2024-02-17T02:40:55.758Z,19.83
2024-02-17T02:41:55.767Z,19.82
2024-02-17T02:42:55.856Z,19.82
2024-02-17T02:43:55.807Z,19.79
2024-02-17T02:44:55.786Z,19.82
2024-02-17T02:45:55.872Z,19.80
2024-02-17T02:46:55.803Z,19.79
2024-02-17T02:47:56.012Z,19.82
2024-02-17T02:48:55.926Z,19.85
2024-02-17T02:49:55.910Z,19.80
2024-02-17T02:50:55.850Z,19.83
2024-02-17T02:51:55.869Z,19.85
2024-02-17T02:52:55.855Z,19.86
2024-02-17T02:53:55.876Z,19.85
2024-02-17T02:54:55.897Z,19.83
2024-02-17T02:55:55.872Z,19.80
2024-02-17T02:56:55.899Z,19.82
2024-02-17T02:57:55.922Z,19.80
2024-02-17T02:58:55.899Z,19.83
2024-02-17T02:59:55.932Z,19.82
2024-02-17T03:00:56.000Z,19.80
2024-02-17T03:01:55.910Z,19.79
2024-02-17T03:02:55.941Z,19.76
2024-02-17T03:03:55.990Z,19.76
2024-02-17T03:04:55.913Z,19.75
2024-02-17T03:05:55.950Z,19.78
2024-02-17T03:06:55.961Z,19.80
2024-02-17T03:07:55.936Z,19.80
2024-02-17T03:08:55.940Z,19.78
2024-02-17T03:09:55.971Z,19.79
2024-02-17T03:10:55.991Z,19.79
2024-02-17T03:11:55.962Z,19.80
2024-02-17T03:12:55.963Z,19.80
2024-02-17T03:13:55.975Z,19.80
2024-02-17T03:14:55.983Z,19.79
2024-02-17T03:15:56.068Z,19.80
2024-02-17T03:16:56.015Z,19.78
2024-02-17T03:17:56.039Z,19.76
2024-02-17T03:18:56.126Z,19.78
2024-02-17T03:19:56.123Z,19.76
2024-02-17T03:20:56.013Z,19.76
2024-02-17T03:21:56.078Z,19.78
2024-02-17T03:22:56.024Z,19.72
2024-02-17T03:23:56.027Z,19.75
2024-02-17T03:24:56.080Z,19.75
2024-02-17T03:25:56.043Z,19.70
2024-02-17T03:26:56.100Z,19.71
2024-02-17T03:27:56.081Z,19.71
2024-02-17T03:28:56.031Z,19.71
2024-02-17T03:29:56.051Z,19.71
2024-02-17T03:30:56.088Z,19.72
2024-02-17T03:31:56.107Z,19.75
2024-02-17T03:32:56.175Z,19.78
2024-02-17T03:34:56.275Z,19.70
2024-02-17T03:35:56.123Z,19.72
2024-02-17T03:37:56.148Z,19.71
2024-02-17T03:38:56.152Z,19.70
2024-02-17T03:40:56.162Z,19.70
2024-02-17T03:41:56.180Z,19.68
2024-02-17T03:42:56.218Z,19.65
2024-02-17T03:43:56.189Z,19.62
2024-02-17T03:44:56.187Z,19.65
2024-02-17T03:45:56.218Z,19.67
2024-02-17T03:46:56.213Z,19.67
2024-02-17T03:47:56.334Z,19.68
2024-02-17T03:48:56.381Z,19.70
2024-02-17T03:49:56.345Z,19.71
2024-02-17T03:50:56.313Z,19.71
2024-02-17T03:51:56.380Z,19.72
2024-02-17T03:53:56.326Z,19.70
2024-02-17T03:54:56.365Z,19.70
2024-02-17T03:55:56.334Z,19.67
2024-02-17T03:56:56.345Z,19.62
2024-02-17T03:57:56.368Z,19.62
2024-02-17T03:58:56.371Z,19.60
2024-02-17T03:59:56.398Z,19.62
2024-02-17T04:00:56.482Z,19.67
2024-02-17T04:01:56.465Z,19.62
2024-02-17T04:02:56.443Z,19.67
2024-02-17T04:03:56.614Z,19.64
2024-02-17T04:04:56.511Z,19.62
2024-02-17T04:05:56.589Z,19.61
2024-02-17T04:06:56.599Z,19.60
2024-02-17T04:07:56.539Z,19.58
2024-02-17T04:08:56.520Z,19.55
2024-02-17T04:09:56.640Z,19.57
2024-02-17T04:10:56.664Z,19.57
2024-02-17T04:11:56.534Z,19.60
2024-02-17T04:12:56.574Z,19.60
2024-02-17T04:13:56.577Z,19.62
2024-02-17T04:14:56.596Z,19.64
2024-02-17T04:15:56.651Z,19.61
2024-02-17T04:16:56.620Z,19.62
2024-02-17T04:17:56.656Z,19.61
2024-02-17T04:18:56.729Z,19.57
2024-02-17T04:19:56.834Z,19.57
2024-02-17T04:20:56.669Z,19.53
2024-02-17T04:21:56.680Z,19.50
2024-02-17T04:22:56.675Z,19.52
2024-02-17T04:23:56.705Z,19.55
2024-02-17T04:24:56.699Z,19.57
2024-02-17T04:25:56.705Z,19.57
2024-02-17T04:26:56.709Z,19.58
2024-02-17T04:27:56.713Z,19.58
2024-02-17T04:28:56.723Z,19.53
2024-02-17T04:29:56.715Z,19.50
2024-02-17T04:30:56.794Z,19.52
2024-02-17T04:31:56.738Z,19.55
2024-02-17T04:32:56.785Z,19.49
2024-02-17T04:33:56.865Z,19.47
2024-02-17T04:34:56.873Z,19.47
2024-02-17T04:35:56.783Z,19.47
2024-02-17T04:36:56.760Z,19.50
2024-02-17T04:37:56.776Z,19.50
2024-02-17T04:38:56.800Z,19.49
2024-02-17T04:39:56.782Z,19.50
2024-02-17T04:40:56.799Z,19.52
2024-02-17T04:41:57.632Z,19.50
2024-02-17T04:42:56.833Z,19.52
2024-02-17T04:43:56.826Z,19.50
2024-02-17T04:44:56.853Z,19.53
2024-02-17T04:45:56.871Z,19.55
2024-02-17T04:46:56.853Z,19.50
2024-02-17T04:47:56.894Z,19.49
2024-02-17T04:48:57.118Z,19.50
2024-02-17T04:49:56.913Z,19.49
2024-02-17T04:50:56.905Z,19.50
2024-02-17T04:51:56.969Z,19.52
2024-02-17T04:52:56.921Z,19.49
2024-02-17T04:53:56.941Z,19.50
2024-02-17T04:54:56.943Z,19.49
2024-02-17T04:56:56.956Z,19.52
2024-02-17T04:57:56.985Z,19.52
2024-02-17T04:58:56.969Z,19.52
2024-02-17T04:59:56.978Z,19.50
2024-02-17T05:00:58.354Z,19.52
2024-02-17T05:01:56.989Z,19.50
2024-02-17T05:02:57.032Z,19.52
2024-02-17T05:03:57.195Z,19.49
2024-02-17T05:04:57.031Z,19.50
2024-02-17T05:05:57.040Z,19.52
2024-02-17T05:06:57.189Z,19.52
2024-02-17T05:07:57.084Z,19.47
2024-02-17T05:08:57.090Z,19.46
2024-02-17T05:09:57.093Z,19.43
2024-02-17T05:10:57.100Z,19.45
2024-02-17T05:11:57.100Z,19.46
2024-02-17T05:12:58.588Z,19.47
2024-02-17T05:13:57.118Z,19.49
2024-02-17T05:14:57.429Z,19.49
2024-02-17T05:15:57.151Z,19.45
2024-02-17T05:16:57.134Z,19.46
2024-02-17T05:17:57.165Z,19.47
2024-02-17T05:18:57.228Z,19.47
2024-02-17T05:19:57.256Z,19.43
2024-02-17T05:20:57.226Z,19.42
2024-02-17T05:21:57.194Z,19.40
2024-02-17T05:22:57.210Z,19.43
2024-02-17T05:23:57.233Z,19.42
2024-02-17T05:24:57.241Z,19.40
2024-02-17T05:25:57.212Z,19.40
2024-02-17T05:26:57.213Z,19.40
2024-02-17T05:27:57.311Z,19.42
2024-02-17T05:28:57.240Z,19.42
2024-02-17T05:29:57.230Z,19.46
2024-02-17T05:30:57.336Z,19.40
2024-02-17T05:31:57.259Z,19.40
2024-02-17T05:32:57.303Z,19.42
2024-02-17T05:33:57.486Z,19.39
2024-02-17T05:34:59.468Z,19.39
2024-02-17T05:35:57.338Z,19.35
2024-02-17T05:36:57.345Z,19.34
2024-02-17T05:37:57.362Z,19.35
2024-02-17T05:38:57.374Z,19.35
2024-02-17T05:39:57.372Z,19.34
2024-02-17T05:40:57.389Z,19.35
2024-02-17T05:41:57.392Z,19.38
2024-02-17T05:42:57.421Z,19.35
2024-02-17T05:43:57.426Z,19.40
2024-02-17T05:44:57.425Z,19.38
2024-02-17T05:45:57.474Z,19.34
2024-02-17T05:46:57.469Z,19.32
2024-02-17T05:47:57.510Z,19.30
2024-02-17T05:48:57.519Z,19.31
2024-02-17T05:49:57.617Z,19.32
2024-02-17T05:50:57.457Z,19.34
2024-02-17T05:51:57.526Z,19.31
2024-02-17T05:52:57.475Z,19.32
2024-02-17T05:53:57.482Z,19.31
2024-02-17T05:54:57.534Z,19.30
2024-02-17T05:55:57.549Z,19.30
2024-02-17T05:56:57.532Z,19.30
2024-02-17T05:57:57.559Z,19.27
2024-02-17T05:58:58.313Z,19.24
2024-02-17T05:59:57.533Z,19.24
2024-02-17T06:00:57.606Z,19.27
2024-02-17T06:01:57.571Z,19.25
2024-02-17T06:02:57.508Z,19.25
2024-02-17T06:03:57.648Z,19.20
2024-02-17T06:04:57.633Z,19.21
2024-02-17T06:05:57.505Z,19.20
2024-02-17T06:06:57.620Z,19.21
2024-02-17T06:07:57.537Z,19.17
2024-02-17T06:08:57.518Z,19.20
2024-02-17T06:09:57.603Z,19.16
2024-02-17T06:10:57.555Z,19.17
2024-02-17T06:11:57.593Z,19.20
2024-02-17T06:13:58.320Z,19.16
2024-02-17T06:14:57.627Z,19.16
2024-02-17T06:15:57.715Z,19.15
2024-02-17T06:16:57.680Z,19.16
2024-02-17T06:17:57.726Z,19.16
2024-02-17T06:18:57.918Z,19.16
2024-02-17T06:19:57.731Z,19.12
2024-02-17T06:20:57.702Z,19.13
2024-02-17T06:21:57.733Z,19.09
2024-02-17T06:22:57.805Z,19.10
2024-02-17T06:23:57.753Z,19.09
2024-02-17T06:24:57.785Z,19.10
2024-02-17T06:25:57.781Z,19.10
2024-02-17T06:26:57.808Z,19.12
2024-02-17T06:27:57.877Z,19.07
2024-02-17T06:28:57.860Z,19.10
2024-02-17T06:29:57.813Z,19.07
2024-02-17T06:30:57.857Z,19.07
2024-02-17T06:31:57.870Z,19.09
2024-02-17T06:32:57.921Z,19.06
2024-02-17T06:33:58.149Z,19.05
2024-02-17T06:34:57.963Z,19.06
2024-02-17T06:35:57.917Z,19.06
2024-02-17T06:36:57.967Z,19.02
2024-02-17T06:37:57.953Z,19.06
2024-02-17T06:38:57.999Z,19.05
2024-02-17T06:39:58.109Z,19.05
2024-02-17T06:40:57.987Z,19.02
2024-02-17T06:41:58.015Z,19.02
2024-02-17T06:42:58.094Z,19.05
2024-02-17T06:44:58.032Z,19.06
2024-02-17T06:46:58.059Z,19.06
2024-02-17T06:47:58.111Z,19.09
2024-02-17T06:48:58.192Z,19.10
2024-02-17T06:49:58.250Z,19.12
2024-02-17T06:50:58.142Z,19.15
2024-02-17T06:52:58.160Z,19.15
2024-02-17T06:53:58.168Z,19.13
2024-02-17T06:54:58.207Z,19.12
2024-02-17T06:55:58.217Z,19.12
2024-02-17T06:56:58.258Z,19.12
2024-02-17T06:57:58.256Z,19.12
2024-02-17T06:58:58.281Z,19.07
2024-02-17T06:59:58.330Z,19.09
2024-02-17T07:00:58.375Z,19.07
2024-02-17T07:01:58.376Z,19.12
2024-02-17T07:02:58.337Z,19.12
2024-02-17T07:03:58.347Z,19.07
2024-02-17T07:04:58.466Z,19.05
2024-02-17T07:05:58.387Z,19.05
2024-02-17T07:06:58.420Z,19.07
2024-02-17T07:07:58.374Z,19.07
2024-02-17T07:08:58.375Z,19.06
2024-02-17T07:09:58.440Z,19.02
2024-02-17T07:10:58.527Z,19.06
2024-02-17T07:11:58.437Z,19.07
2024-02-17T07:12:58.536Z,19.09
2024-02-17T07:13:58.447Z,19.09
2024-02-17T07:14:58.478Z,19.07
2024-02-17T07:15:58.680Z,19.12
2024-02-17T07:16:58.484Z,19.12
2024-02-17T07:17:58.588Z,19.10
2024-02-17T07:18:58.600Z,19.13
2024-02-17T07:19:58.607Z,19.13
2024-02-17T07:20:58.505Z,19.12
2024-02-17T07:21:58.579Z,19.07
2024-02-17T07:22:58.537Z,19.07
2024-02-17T07:23:58.546Z,19.09
2024-02-17T07:24:58.595Z,19.07
2024-02-17T07:25:58.623Z,19.10
2024-02-17T07:26:58.640Z,19.09
2024-02-17T07:27:58.768Z,19.10
2024-02-17T07:28:58.668Z,19.10
2024-02-17T07:29:58.632Z,19.10
2024-02-17T07:31:58.696Z,19.09
2024-02-17T07:32:58.741Z,19.09
2024-02-17T07:33:58.859Z,19.10
2024-02-17T07:34:58.769Z,19.10
2024-02-17T07:35:58.759Z,19.06
2024-02-17T07:36:58.851Z,19.05
2024-02-17T07:37:58.784Z,19.07
2024-02-17T07:39:58.884Z,19.10
2024-02-17T07:40:58.832Z,19.12
2024-02-17T07:41:58.854Z,19.12
2024-02-17T07:42:58.874Z,19.10
2024-02-17T07:43:58.865Z,19.13
2024-02-17T07:44:58.877Z,19.15
2024-02-17T07:45:58.942Z,19.12
2024-02-17T07:46:58.930Z,19.09
2024-02-17T07:47:58.992Z,19.09
2024-02-17T07:48:59.038Z,19.12
2024-02-17T07:49:59.229Z,19.09
2024-02-17T07:50:59.093Z,19.09
2024-02-17T07:51:59.094Z,19.06
2024-02-17T07:52:59.038Z,19.05
2024-02-17T07:54:00.061Z,19.06
2024-02-17T07:54:59.089Z,19.10
2024-02-17T07:55:59.040Z,19.15
2024-02-17T07:56:59.073Z,19.12
2024-02-17T07:57:59.104Z,19.16
2024-02-17T07:58:59.087Z,19.17
2024-02-17T07:59:59.084Z,19.21
2024-02-17T08:00:59.197Z,19.17
2024-02-17T08:01:59.161Z,19.16
2024-02-17T08:02:59.184Z,19.16
2024-02-17T08:03:59.553Z,19.12
2024-02-17T08:04:59.266Z,19.09
2024-02-17T08:05:59.214Z,19.13
2024-02-17T08:06:59.268Z,19.15
2024-02-17T08:07:59.238Z,19.13
2024-02-17T08:08:59.256Z,19.10
2024-02-17T08:09:59.307Z,19.12
2024-02-17T08:10:59.290Z,19.13
2024-02-17T08:11:59.348Z,19.15
2024-02-17T08:12:59.354Z,19.16
2024-02-17T08:13:59.287Z,19.15
2024-02-17T08:14:59.302Z,19.16
2024-02-17T08:15:59.412Z,19.16
2024-02-17T08:16:59.305Z,19.20
2024-02-17T08:17:59.361Z,19.20
2024-02-17T08:18:59.419Z,19.24
2024-02-17T08:20:01.913Z,19.23
2024-02-17T08:20:59.379Z,19.23
2024-02-17T08:21:59.419Z,19.28
2024-02-17T08:22:59.432Z,19.31
2024-02-17T08:23:59.406Z,19.34
2024-02-17T08:25:59.445Z,19.38
2024-02-17T08:27:59.518Z,19.42
2024-02-17T08:28:59.474Z,19.42
2024-02-17T08:29:59.498Z,19.45
2024-02-17T08:30:59.597Z,19.42
2024-02-17T08:31:59.578Z,19.39
2024-02-17T08:32:59.720Z,19.40
2024-02-17T08:33:59.748Z,19.42
2024-02-17T08:34:59.779Z,19.39
2024-02-17T08:35:59.603Z,19.45
2024-02-17T08:36:59.593Z,19.46
2024-02-17T08:38:00.227Z,19.46
2024-02-17T08:39:00.197Z,19.47
2024-02-17T08:41:59.660Z,19.58
2024-02-17T08:42:59.698Z,19.60
2024-02-17T08:43:59.677Z,19.58
2024-02-17T08:44:59.715Z,19.57
2024-02-17T08:45:59.751Z,19.58
2024-02-17T08:46:59.724Z,19.60
2024-02-17T08:47:59.818Z,19.62
2024-02-17T08:48:59.824Z,19.65
2024-02-17T08:49:59.909Z,19.68
2024-02-17T08:50:59.827Z,19.68
2024-02-17T08:51:59.910Z,19.72
2024-02-17T08:52:59.859Z,19.71
2024-02-17T08:53:59.886Z,19.70
2024-02-17T08:54:59.899Z,19.70
2024-02-17T08:55:59.929Z,19.72
2024-02-17T08:56:59.929Z,19.76
2024-02-17T08:57:59.955Z,19.79
2024-02-17T08:58:59.957Z,19.78
2024-02-17T08:59:59.993Z,19.75
2024-02-17T09:01:00.087Z,19.72
2024-02-17T09:02:00.006Z,19.75
2024-02-17T09:03:00.011Z,19.75
2024-02-17T09:04:00.150Z,19.78
2024-02-17T09:05:00.062Z,19.78
2024-02-17T09:06:00.069Z,19.79
2024-02-17T09:07:00.147Z,19.78
2024-02-17T09:08:00.134Z,19.78
2024-02-17T09:09:00.232Z,19.82
2024-02-17T09:10:00.160Z,19.83
2024-02-17T09:11:00.207Z,19.83
2024-02-17T09:12:00.164Z,19.80
2024-02-17T09:13:00.157Z,19.79
2024-02-17T09:14:00.198Z,19.78
2024-02-17T09:16:00.290Z,19.76
2024-02-17T09:17:00.254Z,19.80
2024-02-17T09:19:26.220Z,19.85
2024-02-17T09:20:26.204Z,19.86
2024-02-17T09:21:26.309Z,19.86
2024-02-17T09:22:26.237Z,19.90
2024-02-17T09:23:26.303Z,19.94
2024-02-17T09:24:26.468Z,19.95
2024-02-17T09:25:26.349Z,19.95
2024-02-17T09:26:26.369Z,20.00
2024-02-17T09:27:26.399Z,20.02
2024-02-17T09:28:26.387Z,20.05
2024-02-17T09:29:26.345Z,20.05
2024-02-17T09:30:26.394Z,20.02
2024-02-17T09:31:26.392Z,20.05
2024-02-17T09:32:26.458Z,20.04
2024-02-17T09:33:26.657Z,20.04
2024-02-17T09:34:26.628Z,20.07
2024-02-17T09:35:26.464Z,20.10
2024-02-17T09:36:26.452Z,20.16
2024-02-17T09:37:26.439Z,20.22
2024-02-17T09:38:26.500Z,20.31
2024-02-17T09:39:26.485Z,20.31
2024-02-17T09:41:26.469Z,20.31
2024-02-17T09:42:26.693Z,20.30
2024-02-17T09:43:26.548Z,20.34
2024-02-17T09:44:26.555Z,20.33
2024-02-17T09:45:26.690Z,20.35
2024-02-17T09:46:27.283Z,20.34
2024-02-17T09:47:26.640Z,20.31
2024-02-17T09:48:26.812Z,20.35
2024-02-17T09:49:26.774Z,20.30
2024-02-17T09:50:26.588Z,20.27
2024-02-17T09:51:26.620Z,20.30
2024-02-17T09:52:26.612Z,20.23
2024-02-17T09:53:26.609Z,20.23
2024-02-17T09:54:26.638Z,20.20
2024-02-17T09:55:26.742Z,20.20
2024-02-17T09:56:26.680Z,20.17
2024-02-17T09:57:34.961Z,20.17
2024-02-17T09:58:26.921Z,20.20
2024-02-17T09:59:26.658Z,20.25
2024-02-17T10:00:26.733Z,20.22
2024-02-17T10:01:26.697Z,20.19
2024-02-17T10:02:26.689Z,20.23
2024-02-17T10:03:26.986Z,20.22
2024-02-17T10:04:26.767Z,20.20
2024-02-17T10:05:26.813Z,20.25
2024-02-17T10:06:26.935Z,20.23
2024-02-17T10:07:26.803Z,20.25
2024-02-17T10:08:28.280Z,20.27
2024-02-17T10:09:26.826Z,20.30
2024-02-17T10:10:26.842Z,20.33
2024-02-17T10:11:26.869Z,20.35
2024-02-17T10:12:26.858Z,20.34
2024-02-17T10:14:26.878Z,20.42
2024-02-17T10:15:26.971Z,20.48
2024-02-17T10:16:26.876Z,20.53
2024-02-17T10:17:28.874Z,20.54
2024-02-17T10:18:27.066Z,20.57
2024-02-17T10:19:27.398Z,20.56
2024-02-17T10:20:27.003Z,20.56
2024-02-17T10:21:26.952Z,20.54
2024-02-17T10:22:26.943Z,20.54
2024-02-17T10:23:26.936Z,20.44
2024-02-17T10:24:27.053Z,20.40
2024-02-17T10:25:27.242Z,20.40
2024-02-17T10:26:26.972Z,20.40
2024-02-17T10:27:27.072Z,20.44
2024-02-17T10:28:26.990Z,20.44
2024-02-17T10:31:27.030Z,20.51
2024-02-17T10:32:27.142Z,20.46
2024-02-17T10:33:27.539Z,20.51
2024-02-17T10:34:27.231Z,20.51
2024-02-17T10:35:27.170Z,20.54
2024-02-17T10:36:27.198Z,20.56
2024-02-17T10:37:27.107Z,20.60
2024-02-17T10:38:27.136Z,20.61
2024-02-17T10:39:27.156Z,20.61
2024-02-17T10:40:27.098Z,20.60
2024-02-17T10:41:27.179Z,20.61
2024-02-17T10:42:27.307Z,20.61
2024-02-17T10:43:27.177Z,20.64
2024-02-17T10:44:27.167Z,20.69
2024-02-17T10:45:27.319Z,20.72
2024-02-17T10:46:27.280Z,20.75
2024-02-17T10:47:27.241Z,20.73
2024-02-17T10:48:27.461Z,20.75
2024-02-17T10:49:27.260Z,20.75
2024-02-17T10:50:27.234Z,20.81
2024-02-17T10:51:27.272Z,20.81
2024-02-17T10:52:27.252Z,20.79
2024-02-17T10:53:27.247Z,20.75
2024-02-17T10:54:27.321Z,20.78
2024-02-17T10:55:28.814Z,20.73
2024-02-17T10:56:27.285Z,20.81
2024-02-17T10:57:27.380Z,20.82
2024-02-17T10:58:27.328Z,20.87
2024-02-17T10:59:27.351Z,20.91
2024-02-17T11:00:27.409Z,20.93
2024-02-17T11:03:27.380Z,21.00
2024-02-17T11:04:27.425Z,21.00
2024-02-17T11:05:27.568Z,20.98
2024-02-17T11:06:27.509Z,21.00
2024-02-17T11:07:27.455Z,21.00
2024-02-17T11:08:29.301Z,20.97
2024-02-17T11:09:27.419Z,21.00
2024-02-17T11:10:27.403Z,20.96
2024-02-17T11:11:27.587Z,21.00
2024-02-17T11:12:27.581Z,21.00
2024-02-17T11:13:27.487Z,21.01
2024-02-17T11:14:27.466Z,21.06
2024-02-17T11:15:27.547Z,21.03
2024-02-17T11:16:27.509Z,21.00
2024-02-17T11:17:27.595Z,21.03
2024-02-17T11:18:27.701Z,21.06
2024-02-17T11:19:35.746Z,21.09
2024-02-17T11:20:27.634Z,21.12
2024-02-17T11:21:27.608Z,21.12
2024-02-17T11:22:27.554Z,21.15
2024-02-17T11:23:27.568Z,21.21
2024-02-17T11:24:27.541Z,21.24
2024-02-17T11:25:27.567Z,21.24
2024-02-17T11:26:33.932Z,21.24
2024-02-17T11:27:27.620Z,21.19
2024-02-17T11:28:27.589Z,21.24
2024-02-17T11:29:27.581Z,21.26
2024-02-17T11:30:27.604Z,21.21
2024-02-17T11:31:27.589Z,21.18
2024-02-17T11:32:27.570Z,21.24
2024-02-17T11:33:27.751Z,21.27
2024-02-17T11:34:27.648Z,21.28
2024-02-17T11:35:27.785Z,21.30
2024-02-17T11:36:27.719Z,21.31
2024-02-17T11:37:27.715Z,21.33
2024-02-17T11:38:27.784Z,21.36
2024-02-17T11:39:27.795Z,21.36
2024-02-17T11:40:27.683Z,21.36
2024-02-17T11:41:27.691Z,21.36
2024-02-17T11:42:27.707Z,21.33
2024-02-17T11:43:27.683Z,21.36
2024-02-17T11:44:27.689Z,21.36
2024-02-17T11:45:27.732Z,21.34
2024-02-17T11:46:27.720Z,21.37
2024-02-17T11:49:28.027Z,21.38
2024-02-17T11:50:27.731Z,21.40
2024-02-17T11:51:30.092Z,21.36
2024-02-17T11:52:27.788Z,21.34
2024-02-17T11:53:27.744Z,21.36
2024-02-17T11:54:27.769Z,21.36
2024-02-17T11:55:27.775Z,21.36
2024-02-17T11:56:27.791Z,21.40
2024-02-17T11:57:27.834Z,21.48
2024-02-17T11:58:27.781Z,21.51
2024-02-17T11:59:27.792Z,21.51
2024-02-17T12:00:27.832Z,21.55
2024-02-17T12:01:28.011Z,21.56
2024-02-17T12:02:27.862Z,21.53
2024-02-17T12:03:27.915Z,21.56
2024-02-17T12:04:27.909Z,21.56
2024-02-17T12:05:27.887Z,21.55
2024-02-17T12:06:28.067Z,21.55
2024-02-17T12:07:28.031Z,21.58
2024-02-17T12:08:27.904Z,21.59
2024-02-17T12:09:27.909Z,21.64
2024-02-17T12:10:27.912Z,21.66
2024-02-17T12:11:27.996Z,21.64
2024-02-17T12:12:27.987Z,21.63
2024-02-17T12:13:28.041Z,21.63
2024-02-17T12:14:27.941Z,21.61
2024-02-17T12:15:27.989Z,21.64
2024-02-17T12:16:27.956Z,21.67
2024-02-17T12:18:28.096Z,21.67
2024-02-17T12:19:28.205Z,21.64
2024-02-17T12:20:28.039Z,21.64
2024-02-17T12:21:28.062Z,21.66
2024-02-17T12:22:28.089Z,21.66
2024-02-17T12:23:28.104Z,21.67
2024-02-17T12:24:28.171Z,21.67
2024-02-17T12:25:28.149Z,21.67
2024-02-17T12:26:38.361Z,21.68
2024-02-17T12:27:28.237Z,21.73
2024-02-17T12:28:28.188Z,21.75
2024-02-17T12:29:28.146Z,21.79
2024-02-17T12:30:28.177Z,21.77
2024-02-17T12:31:28.189Z,21.75
2024-02-17T12:34:28.403Z,21.64
2024-02-17T12:35:28.260Z,21.67
2024-02-17T12:36:28.259Z,21.71
2024-02-17T12:37:28.221Z,21.79
2024-02-17T12:40:28.227Z,21.77
2024-02-17T12:41:28.257Z,21.71
2024-02-17T12:42:28.311Z,21.68
2024-02-17T12:43:34.477Z,21.63
2024-02-17T12:44:28.314Z,21.63
2024-02-17T12:45:28.328Z,21.59
2024-02-17T12:46:28.320Z,21.61
2024-02-17T12:47:28.383Z,21.63
2024-02-17T12:48:28.665Z,21.59
2024-02-17T12:49:28.487Z,21.61
2024-02-17T12:50:28.394Z,21.61
2024-02-17T12:51:28.432Z,21.61
2024-02-17T12:52:28.367Z,21.63
2024-02-17T12:53:28.380Z,21.66
2024-02-17T12:54:28.531Z,21.70
2024-02-17T12:55:28.405Z,21.74
2024-02-17T12:56:30.435Z,21.75
2024-02-17T12:57:28.453Z,21.81
2024-02-17T12:58:28.456Z,21.85
2024-02-17T12:59:29.357Z,21.89
2024-02-17T13:00:28.483Z,21.86
2024-02-17T13:01:30.378Z,21.86
2024-02-17T13:02:28.578Z,21.90
2024-02-17T13:03:28.722Z,21.90
2024-02-17T13:04:28.753Z,21.90
2024-02-17T13:05:28.586Z,21.94
2024-02-17T13:06:28.686Z,21.94
2024-02-17T13:08:28.586Z,21.96
2024-02-17T13:09:28.616Z,21.99
2024-02-17T13:10:28.653Z,21.96
2024-02-17T13:12:28.678Z,21.94
2024-02-17T13:13:28.618Z,21.93
2024-02-17T13:14:28.632Z,21.93
2024-02-17T13:15:28.709Z,21.94
2024-02-17T13:16:28.609Z,21.93
2024-02-17T13:17:28.652Z,21.96
2024-02-17T13:18:28.901Z,21.99
2024-02-17T13:19:30.495Z,22.01
2024-02-17T13:20:28.636Z,22.02
2024-02-17T13:21:28.819Z,21.99
2024-02-17T13:22:28.748Z,21.99
2024-02-17T13:23:28.736Z,21.96
2024-02-17T13:25:28.750Z,21.90
2024-02-17T13:26:28.771Z,21.91
2024-02-17T13:27:28.840Z,21.91
2024-02-17T13:28:28.792Z,21.98
2024-02-17T13:29:28.796Z,22.02